createdAt,value
2018-11-11T00:04:19.910Z,100875.38
2018-11-11T00:09:04.082Z,100876.45
2018-11-11T00:13:48.215Z,100873.59
2018-11-11T00:18:31.453Z,100867.48
2018-11-11T00:23:15.875Z,100872.78
2018-11-11T00:27:58.718Z,100873.48
2018-11-11T00:32:41.776Z,100867.86
2018-11-11T00:37:24.638Z,100870.80
2018-11-11T00:42:07.571Z,100875.42
2018-11-11T00:46:50.430Z,100873.44
2018-11-11T00:51:33.318Z,100872.13
2018-11-11T00:56:16.489Z,100867.52
2018-11-11T01:00:59.591Z,100877.32
2018-11-11T01:05:42.454Z,100873.28
2018-11-11T01:10:25.366Z,100866.50
2018-11-11T01:15:10.196Z,100866.93
2018-11-11T01:19:53.026Z,100870.23
2018-11-11T01:24:35.926Z,100866.16
2018-11-11T01:29:18.896Z,100866.12
2018-11-11T01:34:01.880Z,100866.27
2018-11-11T01:38:44.745Z,100864.22
2018-11-11T01:43:28.902Z,100863.97
2018-11-11T01:48:11.776Z,100862.86
2018-11-11T01:52:55.641Z,100864.91
2018-11-11T01:57:38.959Z,100864.80
2018-11-11T02:02:21.918Z,100866.80
2018-11-11T02:07:05.478Z,100864.03
2018-11-11T02:11:48.462Z,100868.23
2018-11-11T02:16:31.291Z,100875.52
2018-11-11T02:21:14.287Z,100880.64
2018-11-11T02:25:57.125Z,100879.28
2018-11-11T02:30:40.986Z,100883.28
2018-11-11T02:35:23.819Z,100883.47
2018-11-11T02:40:09.512Z,100888.00
2018-11-11T02:44:52.358Z,100888.63
2018-11-11T02:49:35.231Z,100890.48
2018-11-11T02:54:18.181Z,100891.94
2018-11-11T02:59:01.042Z,100891.59
2018-11-11T03:03:44.026Z,100893.12
2018-11-11T03:08:26.925Z,100891.56
2018-11-11T03:13:10.781Z,100893.62
2018-11-11T03:17:53.623Z,100897.29
2018-11-11T03:22:36.566Z,100895.97
2018-11-11T03:27:19.423Z,100903.22
2018-11-11T03:32:02.428Z,100896.45
2018-11-11T03:36:45.276Z,100900.33
2018-11-11T03:41:29.386Z,100898.83
2018-11-11T03:46:12.321Z,100893.75
2018-11-11T03:50:55.413Z,100899.11
2018-11-11T03:55:38.302Z,100903.62
2018-11-11T04:00:22.176Z,100901.64
2018-11-11T04:05:05.753Z,100906.81
2018-11-11T04:09:49.766Z,100911.60
2018-11-11T04:14:32.644Z,100912.38
2018-11-11T04:19:15.520Z,100914.58
2018-11-11T04:23:58.371Z,100928.16
2018-11-11T04:28:41.312Z,100923.34
2018-11-11T04:33:24.465Z,100928.20
2018-11-11T04:38:07.370Z,100920.58
2018-11-11T04:42:50.455Z,100919.59
2018-11-11T04:47:33.323Z,100926.63
2018-11-11T04:52:16.239Z,100935.60
2018-11-11T04:56:59.123Z,100937.59
2018-11-11T05:01:42.321Z,100947.55
2018-11-11T05:06:25.100Z,100949.73
2018-11-11T05:11:09.012Z,100957.62
2018-11-11T05:15:51.883Z,100961.40
2018-11-11T05:20:34.766Z,100970.69
2018-11-11T05:25:17.647Z,100972.66
2018-11-11T05:30:01.596Z,100979.86
2018-11-11T05:34:44.505Z,100980.83
2018-11-11T05:39:29.420Z,100985.82
2018-11-11T05:44:12.338Z,100993.11
2018-11-11T05:48:56.203Z,100996.34
2018-11-11T05:53:40.122Z,101003.16
2018-11-11T05:58:23.022Z,101002.20
2018-11-11T06:03:06.119Z,101004.73
2018-11-11T06:07:49.129Z,101002.93
2018-11-11T06:12:32.172Z,101004.62
2018-11-11T06:17:16.111Z,101011.80
2018-11-11T06:21:59.206Z,101019.55
2018-11-11T06:26:42.104Z,101025.94
2018-11-11T06:31:25.199Z,101027.34
2018-11-11T06:36:08.078Z,101026.55
2018-11-11T06:40:51.971Z,101030.23
2018-11-11T06:45:35.722Z,101025.94
2018-11-11T06:50:19.803Z,101027.03
2018-11-11T06:55:02.757Z,101035.14
2018-11-11T06:59:46.865Z,101040.70
2018-11-11T07:04:29.727Z,101049.98
2018-11-11T07:09:12.664Z,101048.39
2018-11-11T07:13:55.615Z,101054.54
2018-11-11T07:18:38.454Z,101066.15
2018-11-11T07:23:21.544Z,101053.18
2018-11-11T07:28:05.003Z,101058.39
2018-11-11T07:32:48.034Z,101063.87
2018-11-11T07:37:30.891Z,101068.95
2018-11-11T07:42:13.817Z,101072.05
2018-11-11T07:46:56.679Z,101066.23
2018-11-11T07:51:40.674Z,101067.77
2018-11-11T07:56:23.522Z,101068.19
2018-11-11T08:01:06.634Z,101071.13
2018-11-11T08:05:50.406Z,101061.91
2018-11-11T08:10:44.480Z,101073.33
2018-11-11T08:15:27.357Z,101075.66
2018-11-11T08:20:10.455Z,101079.02
2018-11-11T08:24:53.818Z,101076.52
2018-11-11T08:29:36.778Z,101079.80
2018-11-11T08:34:19.690Z,101067.13
2018-11-11T08:39:06.232Z,101073.44
2018-11-11T08:43:49.100Z,101069.90
2018-11-11T08:48:32.022Z,101069.31
2018-11-11T08:53:15.008Z,101063.59
2018-11-11T08:57:58.030Z,101067.31
2018-11-11T09:02:41.479Z,101064.27
2018-11-11T09:07:24.425Z,101072.08
2018-11-11T09:12:07.555Z,101064.06
2018-11-11T09:16:51.263Z,101067.17
2018-11-11T09:21:35.456Z,101069.73
2018-11-11T09:26:19.467Z,101069.12
2018-11-11T09:31:03.874Z,101074.52
2018-11-11T09:35:46.775Z,101069.20
2018-11-11T09:40:31.471Z,101074.32
2018-11-11T09:45:15.336Z,101075.55
2018-11-11T09:49:58.518Z,101065.94
2018-11-11T09:54:41.453Z,101058.97
2018-11-11T09:59:25.383Z,101061.38
2018-11-11T10:06:17.271Z,101055.31
2018-11-11T10:11:05.807Z,101055.06
2018-11-11T10:15:54.957Z,101063.20
2018-11-11T10:20:43.383Z,101063.42
2018-11-11T10:25:35.443Z,101056.02
2018-11-11T10:30:27.527Z,101052.33
2018-11-11T10:35:15.991Z,101048.68
2018-11-11T10:40:09.234Z,101048.09
2018-11-11T10:44:56.650Z,101046.72
2018-11-11T10:49:42.612Z,101044.06
2018-11-11T10:54:25.880Z,101048.98
2018-11-11T10:59:09.982Z,101045.34
2018-11-11T11:03:52.898Z,101049.25
2018-11-11T11:08:36.055Z,101040.08
2018-11-11T11:13:19.047Z,101047.52
2018-11-11T11:18:01.891Z,101039.20
2018-11-11T11:22:45.879Z,101038.73
2018-11-11T11:27:28.746Z,101032.97
2018-11-11T11:32:15.325Z,101031.10
2018-11-11T11:36:58.211Z,101034.21
2018-11-11T11:41:41.088Z,101033.25
2018-11-11T11:46:23.955Z,101026.19
2018-11-11T11:51:10.542Z,101028.24
2018-11-11T11:55:53.399Z,101030.76
2018-11-11T12:00:36.363Z,101030.94
2018-11-11T12:05:19.263Z,101035.13
2018-11-11T12:10:03.802Z,101043.89
2018-11-11T12:14:46.689Z,101046.00
2018-11-11T12:19:33.293Z,101048.98
2018-11-11T12:24:16.463Z,101049.41
2018-11-11T12:29:02.939Z,101055.61
2018-11-11T12:33:46.827Z,101051.38
2018-11-11T12:38:30.922Z,101054.70
2018-11-11T12:43:13.902Z,101064.15
2018-11-11T12:47:56.853Z,101064.31
2018-11-11T12:52:40.863Z,101066.02
2018-11-11T12:57:23.894Z,101074.80
2018-11-11T13:02:07.740Z,101073.84
2018-11-11T13:06:50.635Z,101079.39
2018-11-11T13:11:33.700Z,101088.94
2018-11-11T13:16:16.578Z,101083.16
2018-11-11T13:21:04.432Z,101090.40
2018-11-11T13:25:47.322Z,101092.39
2018-11-11T13:30:30.307Z,101092.64
2018-11-11T13:35:15.142Z,101092.84
2018-11-11T13:39:59.179Z,101098.50
2018-11-11T13:44:42.136Z,101095.07
2018-11-11T13:49:25.257Z,101098.73
2018-11-11T13:54:09.273Z,101098.52
2018-11-11T13:58:52.267Z,101096.60
2018-11-11T14:03:35.174Z,101096.16
2018-11-11T14:08:20.380Z,101100.19
2018-11-11T14:13:03.239Z,101103.98
2018-11-11T14:17:46.726Z,101106.31
2018-11-11T14:22:29.611Z,101102.33
2018-11-11T14:27:12.464Z,101105.09
2018-11-11T14:31:56.903Z,101109.88
2018-11-11T14:36:39.827Z,101108.63
2018-11-11T14:41:28.768Z,101114.20
2018-11-11T14:46:12.383Z,101110.67
2018-11-11T14:50:55.239Z,101124.87
2018-11-11T14:55:38.128Z,101124.13
2018-11-11T15:00:26.498Z,101130.69
2018-11-11T15:05:11.954Z,101125.57
2018-11-11T15:09:55.756Z,101126.29
2018-11-11T15:14:38.851Z,101137.33
2018-11-11T15:19:22.092Z,101133.81
2018-11-11T15:24:05.282Z,101137.25
2018-11-11T15:28:48.245Z,101135.83
2018-11-11T15:33:31.158Z,101140.62
2018-11-11T15:38:14.284Z,101145.30
2018-11-11T15:42:57.353Z,101154.02
2018-11-11T15:47:40.278Z,101160.76
2018-11-11T15:52:23.642Z,101162.77
2018-11-11T15:57:22.399Z,101166.11
2018-11-11T16:02:09.227Z,101166.33
2018-11-11T16:06:52.936Z,101178.99
2018-11-11T16:11:38.958Z,101180.31
2018-11-11T16:16:21.895Z,101186.66
2018-11-11T16:21:05.152Z,101181.09
2018-11-11T16:25:48.218Z,101185.14
2018-11-11T16:30:33.849Z,101187.86
2018-11-11T16:35:17.967Z,101195.95
2018-11-11T16:40:01.091Z,101195.95
2018-11-11T16:44:44.096Z,101196.34
2018-11-11T16:49:31.674Z,101201.38
2018-11-11T16:54:14.944Z,101197.98
2018-11-11T16:58:59.077Z,101201.62
2018-11-11T17:03:50.961Z,101211.32
2018-11-11T17:13:53.098Z,101208.42
2018-11-11T17:18:48.465Z,101220.88
2018-11-11T17:23:34.642Z,101224.67
2018-11-11T17:28:32.636Z,101231.16
2018-11-11T17:33:19.327Z,101225.16
2018-11-11T17:43:23.871Z,101233.53
2018-11-11T17:48:08.123Z,101230.74
2018-11-11T18:00:10.688Z,101236.61
2018-11-11T18:04:55.237Z,101236.95
2018-11-11T18:09:39.123Z,101241.90
2018-11-11T18:14:48.058Z,101243.44
2018-11-11T18:19:46.744Z,101246.09
2018-11-11T18:24:43.290Z,101241.95
2018-11-11T18:29:33.766Z,101252.19
2018-11-11T18:34:18.131Z,101251.63
2018-11-11T18:39:18.671Z,101260.33
2018-11-11T19:21:15.546Z,101274.63
2018-11-11T20:08:37.988Z,101298.09
2018-11-11T20:13:23.836Z,101301.09
2018-11-11T20:18:28.079Z,101297.63
2018-11-11T20:53:43.409Z,101303.09
2018-11-11T21:00:07.638Z,101312.56
2018-11-11T21:04:50.717Z,101312.12
2018-11-11T21:09:33.703Z,101318.48
2018-11-11T21:14:16.659Z,101318.77
2018-11-11T21:19:00.029Z,101320.14
2018-11-11T21:23:43.091Z,101321.87
2018-11-11T21:28:26.234Z,101319.45
2018-11-11T21:33:09.207Z,101324.66
2018-11-11T21:37:53.442Z,101324.53
2018-11-11T21:42:38.315Z,101328.70
2018-11-11T21:47:21.350Z,101321.47
2018-11-11T21:52:04.377Z,101328.41
2018-11-11T21:56:47.292Z,101329.97
2018-11-11T22:01:30.223Z,101329.82
2018-11-11T22:06:13.152Z,101329.31
2018-11-11T22:10:56.481Z,101330.11
2018-11-11T22:15:39.755Z,101324.55
2018-11-11T22:20:22.763Z,101322.69
2018-11-11T22:25:09.854Z,101327.81
2018-11-11T22:29:53.985Z,101333.83
